Time;durP1;ratioP1;P1;durP2;ratioP2;P2;SDS_P1;SDS_P2;PMS_P1;PMS_P2;Temp;Humidity;BMP_temperature;BMP_pressure;BME280_temperature;BME280_humidity;BME280_pressure;Samples;Min_cycle;Max_cycle;Signal;HPM_P1;HPM_P2
2022/01/26 00:06:57;;;;;;;;;;;26.70;43.00;;;;;;3836878;23;19998;-87
2022/01/26 00:08:28;;;;;;;;;;;26.60;43.00;;;;;;3836972;23;19927;-87
2022/01/26 00:09:59;;;;;;;;;;;26.60;43.00;;;;;;3836940;23;19923;-87
2022/01/26 00:11:31;;;;;;;;;;;26.60;43.00;;;;;;3837933;23;19999;-88
2022/01/26 00:13:03;;;;;;;;;;;26.60;43.00;;;;;;3835986;23;19921;-87
2022/01/26 00:14:38;;;;;;;;;;;26.60;43.00;;;;;;3837507;23;19927;-87
2022/01/26 00:16:19;;;;;;;;;;;26.70;43.00;;;;;;3835807;23;19925;-87
2022/01/26 00:17:53;;;;;;;;;;;26.60;43.00;;;;;;3836533;23;20302;-87
2022/01/26 00:19:32;;;;;;;;;;;26.60;43.00;;;;;;3837307;23;20405;-88
2022/01/26 00:21:12;;;;;;;;;;;26.60;43.00;;;;;;3837851;23;19920;-87
2022/01/26 00:22:59;;;;;;;;;;;26.60;43.00;;;;;;3836641;23;19920;-88
2022/01/26 00:24:55;;;;;;;;;;;26.60;43.00;;;;;;3837190;23;19963;-87
2022/01/26 00:27:03;;;;;;;;;;;26.60;43.00;;;;;;3837100;23;19924;-88
2022/01/26 00:28:56;;;;;;;;;;;26.60;43.00;;;;;;3836231;23;19920;-88
2022/01/26 00:38:34;;;;;;;;;;;26.60;43.00;;;;;;3835923;23;19940;-87
2022/01/26 00:39:47;;;;;;;;;;;26.60;43.00;;;;;;3837457;23;20351;-87
2022/01/26 00:41:31;;;;;;;;;;;26.50;43.50;;;;;;3837090;23;19920;-87
2022/01/26 00:43:05;;;;;;;;;;;26.50;42.90;;;;;;3835196;23;19927;-87
2022/01/26 00:44:42;;;;;;;;;;;26.60;43.00;;;;;;3836096;23;20287;-87
2022/01/26 00:46:15;;;;;;;;;;;26.60;43.00;;;;;;3835651;23;19927;-88
2022/01/26 00:47:47;;;;;;;;;;;26.60;43.00;;;;;;3835942;23;20236;-87
2022/01/26 00:49:21;;;;;;;;;;;26.60;43.00;;;;;;3836933;23;20318;-87
2022/01/26 00:50:53;;;;;;;;;;;26.60;43.00;;;;;;3836452;23;19927;-88
2022/01/26 00:52:37;;;;;;;;;;;26.60;43.00;;;;;;3836250;23;19947;-87
2022/01/26 00:54:09;;;;;;;;;;;26.50;42.90;;;;;;3836316;23;20340;-87
2022/01/26 00:55:40;;;;;;;;;;;26.50;42.90;;;;;;3837447;23;19947;-87
2022/01/26 00:57:12;;;;;;;;;;;26.50;42.90;;;;;;3836520;23;19920;-87
2022/01/26 00:58:44;;;;;;;;;;;26.50;42.90;;;;;;3835831;23;19924;-88
2022/01/26 01:00:16;;;;;;;;;;;26.50;42.90;;;;;;3836323;23;20344;-87
2022/01/26 01:01:49;;;;;;;;;;;26.50;42.90;;;;;;3837141;23;19920;-87
2022/01/26 01:03:21;;;;;;;;;;;26.60;43.00;;;;;;3834739;23;19967;-87
2022/01/26 01:04:54;;;;;;;;;;;26.50;42.90;;;;;;3837178;23;19987;-87
2022/01/26 01:06:28;;;;;;;;;;;26.60;43.00;;;;;;3835986;23;19978;-87
2022/01/26 01:08:04;;;;;;;;;;;26.50;42.90;;;;;;3836441;23;19971;-87
2022/01/26 01:09:36;;;;;;;;;;;26.50;42.90;;;;;;3836918;23;20351;-87
2022/01/26 01:11:08;;;;;;;;;;;26.50;42.90;;;;;;3836758;23;19946;-87
2022/01/26 01:12:42;;;;;;;;;;;26.50;42.90;;;;;;3836287;23;19921;-88
2022/01/26 01:14:14;;;;;;;;;;;26.50;42.90;;;;;;3836001;23;20000;-88
2022/01/26 01:15:46;;;;;;;;;;;26.50;42.90;;;;;;3836238;23;19920;-87
2022/01/26 01:17:24;;;;;;;;;;;26.50;42.90;;;;;;3836405;23;19975;-88
2022/01/26 01:19:02;;;;;;;;;;;26.50;42.90;;;;;;3837173;23;19924;-88
2022/01/26 01:22:41;;;;;;;;;;;26.50;42.90;;;;;;3826360;23;19923;-88
2022/01/26 01:30:01;;;;;;;;;;;26.50;42.90;;;;;;3835217;23;20343;-88
2022/01/26 01:31:42;;;;;;;;;;;26.50;42.90;;;;;;3835789;23;20462;-88
2022/01/26 01:33:19;;;;;;;;;;;26.50;42.90;;;;;;3848071;23;19919;-83
2022/01/26 01:34:50;;;;;;;;;;;26.50;42.90;;;;;;3855342;23;20002;-83
2022/01/26 01:36:23;;;;;;;;;;;26.50;42.90;;;;;;3852237;23;19946;-83
2022/01/26 01:37:54;;;;;;;;;;;26.50;42.90;;;;;;3854883;23;19923;-83
2022/01/26 01:39:26;;;;;;;;;;;26.50;42.90;;;;;;3855860;23;19920;-83
2022/01/26 01:40:57;;;;;;;;;;;26.50;42.90;;;;;;3854640;23;19986;-82
2022/01/26 01:42:30;;;;;;;;;;;26.50;42.90;;;;;;3855494;23;19920;-83
2022/01/26 01:44:04;;;;;;;;;;;26.50;42.90;;;;;;3853418;23;19994;-83
2022/01/26 01:45:36;;;;;;;;;;;26.50;42.90;;;;;;3854607;23;20430;-83
2022/01/26 01:47:07;;;;;;;;;;;26.50;42.90;;;;;;3856435;23;19924;-83
2022/01/26 01:48:40;;;;;;;;;;;26.50;42.90;;;;;;3853729;23;19986;-83
2022/01/26 01:50:12;;;;;;;;;;;26.50;42.90;;;;;;3855723;23;19920;-83
2022/01/26 01:51:49;;;;;;;;;;;26.50;42.90;;;;;;3854082;23;19920;-83
2022/01/26 01:53:28;;;;;;;;;;;26.50;42.90;;;;;;3853980;23;19919;-83
2022/01/26 01:55:03;;;;;;;;;;;26.50;42.90;;;;;;3855760;23;19919;-83
2022/01/26 01:56:38;;;;;;;;;;;26.50;42.90;;;;;;3854608;23;19995;-83
2022/01/26 01:58:10;;;;;;;;;;;26.50;42.90;;;;;;3854794;23;19925;-83
2022/01/26 01:59:41;;;;;;;;;;;26.50;42.90;;;;;;3854856;23;19920;-84
2022/01/26 02:01:13;;;;;;;;;;;26.50;42.90;;;;;;3853616;23;19920;-83
2022/01/26 02:02:44;;;;;;;;;;;26.50;42.90;;;;;;3856026;23;19920;-82
2022/01/26 02:04:17;;;;;;;;;;;26.40;42.80;;;;;;3852824;23;19920;-83
2022/01/26 02:05:49;;;;;;;;;;;26.50;42.90;;;;;;3856211;23;19943;-82
2022/01/26 02:07:21;;;;;;;;;;;26.40;42.80;;;;;;3854249;23;19919;-84
2022/01/26 02:08:52;;;;;;;;;;;26.50;42.90;;;;;;3856018;23;19947;-83
2022/01/26 02:10:25;;;;;;;;;;;26.40;42.90;;;;;;3856024;23;19919;-83
2022/01/26 02:11:57;;;;;;;;;;;26.40;42.80;;;;;;3854354;23;19920;-83
2022/01/26 02:13:33;;;;;;;;;;;26.40;42.80;;;;;;3855064;23;20350;-83
2022/01/26 02:15:11;;;;;;;;;;;26.40;42.80;;;;;;3854634;23;19923;-84
2022/01/26 02:16:48;;;;;;;;;;;26.40;42.80;;;;;;3855371;23;19967;-82
2022/01/26 02:18:41;;;;;;;;;;;26.40;42.80;;;;;;3856041;23;19920;-82
2022/01/26 02:20:39;;;;;;;;;;;26.40;42.80;;;;;;3854726;23;19919;-83
2022/01/26 02:49:53;;;;;;;;;;;26.40;42.80;;;;;;3856353;23;19923;-83
2022/01/26 02:51:56;;;;;;;;;;;26.40;42.80;;;;;;3856093;23;19923;-84
2022/01/26 02:53:47;;;;;;;;;;;26.40;42.80;;;;;;3853400;23;20374;-83
2022/01/26 02:55:32;;;;;;;;;;;26.40;42.70;;;;;;3856304;23;19919;-83
2022/01/26 02:57:24;;;;;;;;;;;26.40;42.70;;;;;;3856543;23;19916;-83
2022/01/26 03:01:07;;;;;;;;;;;26.40;42.60;;;;;;3780825;23;19917;-83
2022/01/26 03:02:44;;;;;;;;;;;26.40;42.70;;;;;;3856289;23;19990;-83
2022/01/26 03:04:23;;;;;;;;;;;26.40;42.60;;;;;;3857755;23;19923;-84
2022/01/26 03:05:59;;;;;;;;;;;26.40;42.60;;;;;;3855153;23;19954;-83
2022/01/26 03:07:40;;;;;;;;;;;26.40;42.50;;;;;;3857222;23;19927;-83
2022/01/26 03:09:17;;;;;;;;;;;26.40;42.50;;;;;;3857765;23;19915;-83
2022/01/26 03:10:52;;;;;;;;;;;26.40;42.50;;;;;;3855754;23;19924;-83
2022/01/26 03:12:31;;;;;;;;;;;26.40;42.50;;;;;;3857705;23;19985;-82
2022/01/26 03:14:11;;;;;;;;;;;26.40;42.60;;;;;;3854865;23;19920;-83
2022/01/26 03:15:47;;;;;;;;;;;26.40;42.60;;;;;;3855851;23;19927;-83
2022/01/26 03:17:34;;;;;;;;;;;26.40;42.60;;;;;;3857901;23;19920;-83
2022/01/26 03:19:17;;;;;;;;;;;26.40;42.50;;;;;;3856026;23;19970;-83
2022/01/26 03:20:51;;;;;;;;;;;26.30;42.50;;;;;;3856958;23;19923;-83
2022/01/26 03:28:18;;;;;;;;;;;26.40;42.40;;;;;;3857609;23;20354;-83
2022/01/26 03:29:59;;;;;;;;;;;26.40;42.50;;;;;;3857395;23;19920;-84
2022/01/26 03:33:47;;;;;;;;;;;26.40;42.50;;;;;;3794221;23;19956;-82
2022/01/26 03:35:27;;;;;;;;;;;26.40;42.50;;;;;;3858174;23;20022;-82
2022/01/26 03:37:04;;;;;;;;;;;26.40;42.60;;;;;;3856202;23;20335;-83
2022/01/26 03:38:42;;;;;;;;;;;26.40;42.50;;;;;;3857488;23;19936;-83
2022/01/26 03:40:15;;;;;;;;;;;26.30;42.40;;;;;;3857657;23;19926;-84
2022/01/26 03:41:49;;;;;;;;;;;26.30;42.30;;;;;;3855365;23;19937;-83
2022/01/26 03:43:21;;;;;;;;;;;26.30;42.30;;;;;;3856509;23;19920;-82
2022/01/26 03:44:52;;;;;;;;;;;26.30;42.30;;;;;;3856056;23;20417;-82
2022/01/26 03:46:24;;;;;;;;;;;26.30;42.30;;;;;;3855403;23;19920;-83
2022/01/26 03:47:56;;;;;;;;;;;26.30;42.30;;;;;;3857248;23;20347;-83
2022/01/26 03:49:27;;;;;;;;;;;26.30;42.40;;;;;;3855957;23;19970;-83
2022/01/26 03:51:00;;;;;;;;;;;26.40;42.40;;;;;;3858608;23;19924;-83
2022/01/26 03:52:31;;;;;;;;;;;26.30;42.40;;;;;;3854609;23;19995;-83
2022/01/26 03:54:02;;;;;;;;;;;26.30;42.40;;;;;;3856116;23;20294;-82
2022/01/26 03:55:35;;;;;;;;;;;26.30;42.30;;;;;;3857709;23;19935;-83
2022/01/26 03:57:06;;;;;;;;;;;26.40;42.40;;;;;;3855684;23;19920;-83
2022/01/26 03:58:38;;;;;;;;;;;26.30;42.40;;;;;;3856870;23;19927;-82
2022/01/26 04:00:10;;;;;;;;;;;26.40;42.40;;;;;;3854344;23;20582;-83
2022/01/26 04:01:42;;;;;;;;;;;26.40;42.40;;;;;;3857720;23;19927;-82
2022/01/26 04:03:13;;;;;;;;;;;26.30;42.40;;;;;;3854470;23;19919;-83
2022/01/26 04:04:50;;;;;;;;;;;26.30;42.30;;;;;;3855664;23;19919;-82
2022/01/26 04:06:23;;;;;;;;;;;26.30;42.20;;;;;;3857666;23;19924;-82
2022/01/26 04:08:00;;;;;;;;;;;26.30;42.30;;;;;;3855186;23;19920;-83
2022/01/26 04:09:32;;;;;;;;;;;26.40;42.40;;;;;;3857562;23;19931;-83
2022/01/26 04:11:19;;;;;;;;;;;26.30;42.30;;;;;;3856937;23;19947;-83
2022/01/26 04:12:51;;;;;;;;;;;26.30;42.30;;;;;;3854265;23;19956;-83
2022/01/26 04:14:27;;;;;;;;;;;26.30;42.30;;;;;;3857036;23;19920;-82
2022/01/26 04:15:58;;;;;;;;;;;26.40;42.40;;;;;;3855226;23;20404;-83
2022/01/26 04:17:30;;;;;;;;;;;26.30;42.30;;;;;;3854805;23;19919;-83
2022/01/26 04:19:01;;;;;;;;;;;26.30;42.30;;;;;;3858461;23;19920;-83
2022/01/26 04:20:38;;;;;;;;;;;26.40;42.30;;;;;;3855301;23;19920;-83
2022/01/26 04:22:16;;;;;;;;;;;26.30;42.30;;;;;;3858100;23;20004;-82
2022/01/26 04:23:52;;;;;;;;;;;26.30;42.20;;;;;;3855316;23;19926;-84
2022/01/26 04:25:26;;;;;;;;;;;26.30;42.30;;;;;;3856650;23;19920;-82
2022/01/26 04:27:02;;;;;;;;;;;26.30;42.30;;;;;;3858751;23;19919;-82
2022/01/26 04:28:40;;;;;;;;;;;26.40;42.40;;;;;;3854671;23;19987;-83
2022/01/26 04:30:12;;;;;;;;;;;26.40;42.40;;;;;;3855646;23;20278;-82
2022/01/26 04:31:43;;;;;;;;;;;26.40;42.30;;;;;;3857024;23;19974;-83
2022/01/26 04:33:14;;;;;;;;;;;26.40;42.40;;;;;;3853068;23;20343;-83
2022/01/26 04:34:47;;;;;;;;;;;26.40;42.30;;;;;;3858541;23;20359;-83
2022/01/26 04:36:24;;;;;;;;;;;26.40;42.40;;;;;;3854729;23;19978;-84
2022/01/26 04:38:12;;;;;;;;;;;26.40;42.30;;;;;;3856914;23;19915;-83
2022/01/26 04:39:49;;;;;;;;;;;26.40;43.00;;;;;;3858058;23;19924;-83
2022/01/26 04:41:29;;;;;;;;;;;26.40;42.40;;;;;;3855472;23;19926;-83
2022/01/26 04:43:06;;;;;;;;;;;26.50;42.40;;;;;;3855858;23;20224;-83
2022/01/26 04:44:43;;;;;;;;;;;26.40;42.30;;;;;;3856583;23;19920;-83
2022/01/26 04:46:15;;;;;;;;;;;26.40;42.30;;;;;;3853424;23;19926;-83
2022/01/26 04:47:46;;;;;;;;;;;26.50;42.40;;;;;;3856566;23;19924;-83
2022/01/26 04:49:18;;;;;;;;;;;26.50;42.40;;;;;;3855506;23;19920;-83
2022/01/26 04:50:49;;;;;;;;;;;26.50;42.40;;;;;;3856329;23;19924;-83
2022/01/26 04:52:21;;;;;;;;;;;26.50;42.40;;;;;;3855719;23;19920;-83
2022/01/26 04:53:53;;;;;;;;;;;26.50;42.40;;;;;;3853915;23;20521;-83
2022/01/26 04:55:24;;;;;;;;;;;26.50;42.30;;;;;;3856749;23;20518;-83
2022/01/26 04:56:56;;;;;;;;;;;26.50;42.30;;;;;;3854155;23;20453;-82
2022/01/26 04:58:29;;;;;;;;;;;26.50;42.10;;;;;;3855858;23;19946;-82
2022/01/26 05:00:01;;;;;;;;;;;26.50;42.20;;;;;;3856056;23;19983;-83
2022/01/26 05:01:32;;;;;;;;;;;26.50;42.10;;;;;;3853731;23;20302;-82
2022/01/26 05:03:04;;;;;;;;;;;26.50;42.10;;;;;;3855260;23;19920;-83
2022/01/26 05:04:35;;;;;;;;;;;26.50;42.00;;;;;;3855209;23;19923;-82
2022/01/26 05:06:06;;;;;;;;;;;26.50;42.00;;;;;;3856441;23;20290;-83
2022/01/26 05:07:38;;;;;;;;;;;26.50;42.00;;;;;;3853994;23;20033;-83
2022/01/26 05:09:09;;;;;;;;;;;26.60;42.10;;;;;;3854907;23;20047;-84
2022/01/26 05:10:43;;;;;;;;;;;26.60;42.10;;;;;;3855197;23;20343;-84
2022/01/26 05:12:15;;;;;;;;;;;26.50;42.70;;;;;;3854919;23;19920;-84
2022/01/26 05:13:48;;;;;;;;;;;26.60;42.10;;;;;;3852784;23;20498;-84
2022/01/26 05:15:22;;;;;;;;;;;26.50;42.10;;;;;;3852689;23;20290;-84
2022/01/26 05:16:54;;;;;;;;;;;26.60;42.20;;;;;;3854639;23;19920;-84
2022/01/26 05:18:26;;;;;;;;;;;26.50;42.10;;;;;;3855034;23;19920;-83
2022/01/26 05:19:59;;;;;;;;;;;26.50;42.10;;;;;;3853875;23;20346;-84
2022/01/26 05:21:31;;;;;;;;;;;26.60;42.20;;;;;;3855558;23;19919;-84
2022/01/26 05:23:03;;;;;;;;;;;26.60;42.20;;;;;;3852728;23;19970;-84
2022/01/26 05:24:34;;;;;;;;;;;26.50;42.10;;;;;;3854817;23;19943;-84
2022/01/26 05:26:06;;;;;;;;;;;26.50;42.10;;;;;;3854458;23;19982;-83
2022/01/26 05:27:38;;;;;;;;;;;26.60;42.10;;;;;;3853785;23;19951;-84
2022/01/26 05:29:11;;;;;;;;;;;26.50;42.20;;;;;;3855671;23;19953;-84
2022/01/26 05:30:42;;;;;;;;;;;26.50;42.10;;;;;;3853607;23;19950;-85
2022/01/26 05:32:14;;;;;;;;;;;26.50;42.10;;;;;;3854570;23;20306;-85
2022/01/26 05:33:45;;;;;;;;;;;26.60;42.20;;;;;;3853395;23;19920;-83
2022/01/26 05:35:17;;;;;;;;;;;26.60;42.30;;;;;;3854903;23;19920;-84
2022/01/26 05:36:49;;;;;;;;;;;26.60;42.30;;;;;;3856043;23;19920;-92
2022/01/26 05:38:20;;;;;;;;;;;26.60;42.20;;;;;;3853333;23;19924;-83
2022/01/26 05:39:52;;;;;;;;;;;26.60;42.50;;;;;;3855131;23;19920;-84
2022/01/26 05:41:23;;;;;;;;;;;26.50;41.70;;;;;;3855166;23;19927;-83
2022/01/26 05:42:55;;;;;;;;;;;26.50;42.20;;;;;;3853106;23;19924;-83
2022/01/26 05:44:28;;;;;;;;;;;26.50;42.40;;;;;;3854392;23;19924;-84
2022/01/26 05:46:04;;;;;;;;;;;26.50;42.40;;;;;;3853506;23;20401;-83
2022/01/26 05:47:35;;;;;;;;;;;26.50;42.40;;;;;;3854467;23;20011;-89
2022/01/26 05:49:07;;;;;;;;;;;26.50;40.20;;;;;;3854127;23;19920;-85
2022/01/26 05:50:39;;;;;;;;;;;26.30;38.80;;;;;;3853469;23;19966;-84
2022/01/26 05:52:10;;;;;;;;;;;26.30;38.70;;;;;;3854576;23;19927;-84
2022/01/26 05:53:42;;;;;;;;;;;26.20;38.80;;;;;;3852587;23;19923;-86
2022/01/26 05:55:13;;;;;;;;;;;26.10;39.20;;;;;;3854809;23;19974;-84
2022/01/26 05:56:47;;;;;;;;;;;26.00;39.00;;;;;;3854065;23;19924;-84
2022/01/26 05:58:19;;;;;;;;;;;25.90;39.10;;;;;;3853739;23;19927;-85
2022/01/26 05:59:53;;;;;;;;;;;25.90;39.40;;;;;;3854699;23;19924;-85
2022/01/26 06:01:25;;;;;;;;;;;25.80;39.50;;;;;;3853096;23;19920;-84
2022/01/26 06:02:56;;;;;;;;;;;25.80;39.60;;;;;;3852777;23;20310;-84
2022/01/26 06:04:28;;;;;;;;;;;25.70;39.40;;;;;;3854073;23;19920;-85
2022/01/26 06:06:00;;;;;;;;;;;25.70;39.40;;;;;;3853744;23;19956;-84
2022/01/26 06:07:32;;;;;;;;;;;25.60;39.50;;;;;;3853883;23;19974;-85
2022/01/26 06:09:03;;;;;;;;;;;25.70;39.60;;;;;;3854356;23;19924;-85
2022/01/26 06:10:35;;;;;;;;;;;25.60;39.60;;;;;;3853464;23;19924;-85
2022/01/26 06:12:07;;;;;;;;;;;25.60;39.50;;;;;;3855007;23;19920;-85
2022/01/26 06:13:39;;;;;;;;;;;25.60;39.70;;;;;;3851645;23;19982;-85
2022/01/26 06:15:12;;;;;;;;;;;25.50;39.50;;;;;;3853772;23;20335;-86
2022/01/26 06:16:44;;;;;;;;;;;25.50;39.50;;;;;;3854201;23;19924;-85
2022/01/26 06:18:15;;;;;;;;;;;25.50;39.60;;;;;;3855614;23;20438;-85
2022/01/26 06:19:47;;;;;;;;;;;25.40;39.80;;;;;;3855614;23;19920;-85
2022/01/26 06:21:20;;;;;;;;;;;25.40;39.80;;;;;;3854708;23;22203;-85
2022/01/26 06:22:52;;;;;;;;;;;25.40;39.90;;;;;;3855023;23;19920;-86
2022/01/26 06:24:24;;;;;;;;;;;25.40;39.90;;;;;;3855361;23;19920;-85
2022/01/26 06:25:56;;;;;;;;;;;25.30;39.80;;;;;;3856161;23;19924;-85
2022/01/26 06:27:28;;;;;;;;;;;25.30;39.90;;;;;;3855154;23;19920;-85
2022/01/26 06:29:00;;;;;;;;;;;25.20;39.90;;;;;;3855150;23;19920;-85
2022/01/26 06:30:33;;;;;;;;;;;25.20;39.80;;;;;;3859252;23;19924;-85
2022/01/26 06:32:05;;;;;;;;;;;25.20;40.00;;;;;;3856711;23;19955;-86
2022/01/26 06:33:37;;;;;;;;;;;25.20;40.00;;;;;;3853667;23;19920;-85
2022/01/26 06:35:09;;;;;;;;;;;25.10;39.50;;;;;;3860737;23;19947;-86
2022/01/26 06:36:43;;;;;;;;;;;25.10;40.10;;;;;;3857265;23;19919;-86
2022/01/26 06:38:14;;;;;;;;;;;25.10;40.50;;;;;;3855242;23;20282;-86
2022/01/26 06:39:46;;;;;;;;;;;25.10;40.40;;;;;;3855956;23;19924;-86
2022/01/26 06:41:23;;;;;;;;;;;25.10;40.10;;;;;;3855700;23;19920;-86
2022/01/26 06:42:58;;;;;;;;;;;25.10;40.10;;;;;;3853779;23;19920;-84
2022/01/26 06:44:33;;;;;;;;;;;25.10;40.30;;;;;;3854737;23;19920;-84
2022/01/26 06:46:08;;;;;;;;;;;25.10;40.50;;;;;;3853956;23;19920;-84
2022/01/26 06:47:53;;;;;;;;;;;25.20;40.70;;;;;;3855051;23;20346;-88
2022/01/26 06:49:30;;;;;;;;;;;25.20;40.90;;;;;;3856052;23;19920;-89
2022/01/26 06:51:01;;;;;;;;;;;25.20;41.00;;;;;;3856443;23;19920;-89
2022/01/26 06:52:33;;;;;;;;;;;25.20;41.00;;;;;;3855520;23;19920;-89
2022/01/26 06:54:05;;;;;;;;;;;25.10;40.90;;;;;;3856490;23;19920;-90
2022/01/26 06:55:36;;;;;;;;;;;25.20;41.20;;;;;;3856046;23;19946;-91
2022/01/26 06:57:08;;;;;;;;;;;25.30;41.40;;;;;;3856076;23;20318;-89
2022/01/26 06:58:40;;;;;;;;;;;25.30;42.10;;;;;;3857245;23;19943;-86
2022/01/26 07:00:12;;;;;;;;;;;25.30;42.00;;;;;;3854619;23;19978;-85
2022/01/26 07:01:45;;;;;;;;;;;25.40;42.00;;;;;;3855991;23;19920;-85
2022/01/26 07:03:16;;;;;;;;;;;25.40;42.10;;;;;;3853656;23;19920;-85
2022/01/26 07:04:48;;;;;;;;;;;25.50;42.10;;;;;;3855655;23;20240;-86
2022/01/26 07:06:20;;;;;;;;;;;25.50;42.10;;;;;;3853754;23;19927;-85
2022/01/26 07:07:52;;;;;;;;;;;25.50;42.10;;;;;;3852705;23;19991;-86
2022/01/26 07:09:23;;;;;;;;;;;25.60;42.20;;;;;;3856371;23;19924;-86
2022/01/26 07:10:55;;;;;;;;;;;25.60;42.20;;;;;;3856495;23;19935;-85
2022/01/26 07:12:26;;;;;;;;;;;25.60;42.20;;;;;;3856179;23;19920;-85
2022/01/26 07:14:00;;;;;;;;;;;25.70;42.20;;;;;;3856112;23;20240;-85
2022/01/26 07:22:49;;;;;;;;;;;25.70;42.40;;;;;;3855157;23;19923;-86
2022/01/26 07:24:20;;;;;;;;;;;25.70;42.40;;;;;;3857267;23;19938;-85
2022/01/26 07:25:52;;;;;;;;;;;25.70;42.40;;;;;;3855708;23;19931;-85
2022/01/26 07:27:24;;;;;;;;;;;25.70;42.40;;;;;;3856424;23;19920;-86
2022/01/26 07:28:55;;;;;;;;;;;25.80;42.40;;;;;;3854555;23;19923;-85
2022/01/26 07:30:27;;;;;;;;;;;25.80;42.40;;;;;;3855762;23;20331;-86
2022/01/26 07:31:59;;;;;;;;;;;25.80;42.40;;;;;;3857787;23;19920;-85
2022/01/26 13:34:55;;;;;;;;;;;25.20;39.30;;;;;;3833299;23;19975;-85
2022/01/26 13:36:43;;;;;;;;;;;25.30;39.20;;;;;;3834917;23;20563;-85
2022/01/26 13:38:27;;;;;;;;;;;25.40;39.30;;;;;;3835264;23;19920;-85
2022/01/26 13:40:12;;;;;;;;;;;25.40;39.20;;;;;;3836371;23;19927;-85
2022/01/26 13:41:55;;;;;;;;;;;25.40;39.20;;;;;;3835640;23;20335;-85
2022/01/26 13:50:46;;;;;;;;;;;25.60;39.50;;;;;;3775525;23;19988;-86
2022/01/26 13:54:27;;;;;;;;;;;25.60;39.60;;;;;;3815143;23;19923;-85
2022/01/26 13:56:14;;;;;;;;;;;25.60;39.60;;;;;;3835968;23;20584;-89
2022/01/26 13:59:45;;;;;;;;;;;25.60;39.20;;;;;;3786300;23;19923;-90
2022/01/26 14:01:19;;;;;;;;;;;25.50;39.70;;;;;;3835900;23;19931;-92
2022/01/26 14:02:56;;;;;;;;;;;25.40;39.90;;;;;;3835023;23;19920;-88
2022/01/26 14:04:27;;;;;;;;;;;25.30;39.20;;;;;;3835514;23;20275;-89
2022/01/26 14:06:00;;;;;;;;;;;25.20;39.30;;;;;;3836107;23;19995;-89
2022/01/26 14:07:32;;;;;;;;;;;25.20;39.60;;;;;;3835269;23;20250;-93
2022/01/26 14:09:07;;;;;;;;;;;25.20;39.60;;;;;;3837680;23;19920;-94
2022/01/26 14:10:43;;;;;;;;;;;25.20;39.60;;;;;;3841167;23;20044;-89
2022/01/26 14:12:20;;;;;;;;;;;25.10;39.90;;;;;;3837680;23;20308;-89
2022/01/26 14:13:55;;;;;;;;;;;25.10;40.00;;;;;;3842879;23;19928;-91
2022/01/26 14:15:37;;;;;;;;;;;25.00;39.40;;;;;;3836582;23;19920;-93
2022/01/26 14:17:15;;;;;;;;;;;24.90;39.70;;;;;;3836298;23;19920;-91
2022/01/26 14:19:00;;;;;;;;;;;24.90;39.80;;;;;;3837699;23;19921;-91
2022/01/26 14:20:52;;;;;;;;;;;24.90;39.90;;;;;;3837422;23;20266;-91
2022/01/26 14:22:37;;;;;;;;;;;24.90;40.10;;;;;;3837159;23;19975;-90
2022/01/26 14:24:25;;;;;;;;;;;24.80;40.00;;;;;;3839009;23;19970;-92
2022/01/26 14:25:58;;;;;;;;;;;24.80;40.30;;;;;;3842875;23;20259;-92
2022/01/26 14:27:38;;;;;;;;;;;24.80;40.40;;;;;;3851003;23;19909;-93
2022/01/26 14:29:18;;;;;;;;;;;24.70;40.50;;;;;;3840972;23;19920;-91
2022/01/26 14:30:58;;;;;;;;;;;24.70;40.50;;;;;;3841439;23;19920;-91
2022/01/26 14:35:00;;;;;;;;;;;24.70;40.70;;;;;;3765131;23;19921;-91
2022/01/26 14:36:47;;;;;;;;;;;24.60;40.70;;;;;;3833971;23;19920;-94
2022/01/26 14:40:41;;;;;;;;;;;24.50;41.00;;;;;;3841519;23;19956;-91
2022/01/26 14:55:26;;;;;;;;;;;24.60;41.10;;;;;;3787037;23;19924;-92
